Lake Milton, Ohio
Current Conditions -  °F | °C
As of 8:21 PM on Sunday 23 Nov 2014 (Local Time) from KPOV Reporting Station
Light Rain Light Rain  
Wind Chill: 55°   Ceiling: 10000
Heat Index: 55°   Visibility: 10mi
Dew Point: 42°   Wind: 7mph
Humidity: 60%   Direction: 140°SE
Pressure: 29.61"   Gusts: 22mph
Location:  41.1°N, 80.97°W
Report Text: KPOV 240121Z AUTO 14006G19KT 10SM -RA OVC100 13/05 A2961 RMK AO2 T01300054
Loading
Personal Weather Stations






























Interactive Weather Map New forecast layout! Learn more

10-Day Weather Forecast

Advertisements
Track Severe Weather on mobile